createdAt,value
2022-12-04T00:01:15.863Z,13.23
2022-12-04T00:03:42.436Z,15.23
2022-12-04T00:06:10.478Z,16.17
2022-12-04T00:08:37.633Z,17.15
2022-12-04T00:11:05.646Z,17.67
2022-12-04T00:13:32.533Z,17.13
2022-12-04T00:15:59.275Z,17.58
2022-12-04T00:18:25.773Z,17.15
2022-12-04T00:20:52.106Z,16.08
2022-12-04T00:23:18.591Z,18.50
2022-12-04T00:25:48.503Z,17.52
2022-12-04T00:28:18.784Z,17.13
2022-12-04T00:30:45.905Z,17.35
2022-12-04T00:33:13.464Z,17.65
2022-12-04T00:35:40.313Z,18.45
2022-12-04T00:38:06.746Z,19.45
2022-12-04T00:40:33.121Z,17.83
2022-12-04T00:42:59.425Z,15.98
2022-12-04T00:45:25.785Z,14.13
2022-12-04T00:47:52.220Z,18.25
2022-12-04T00:50:18.673Z,17.17
2022-12-04T00:52:45.062Z,17.67
2022-12-04T00:55:11.690Z,17.25
2022-12-04T00:57:38.019Z,15.80
2022-12-04T01:00:05.783Z,16.80
2022-12-04T01:02:32.207Z,17.13
2022-12-04T01:05:01.151Z,18.63
2022-12-04T01:07:27.681Z,16.80
2022-12-04T01:09:54.388Z,17.73
2022-12-04T01:12:21.164Z,16.92
2022-12-04T01:14:47.708Z,17.40
2022-12-04T01:17:14.159Z,17.35
2022-12-04T01:19:40.603Z,17.98
2022-12-04T01:22:06.917Z,13.20
2022-12-04T01:24:33.244Z,14.68
2022-12-04T01:26:59.609Z,15.50
2022-12-04T01:29:25.940Z,14.90
2022-12-04T01:31:52.410Z,17.00
2022-12-04T01:34:18.808Z,17.35
2022-12-04T01:36:45.160Z,17.40
2022-12-04T01:39:11.995Z,16.80
2022-12-04T01:41:38.357Z,19.00
2022-12-04T01:44:13.884Z,18.08
2022-12-04T01:46:42.113Z,16.70
2022-12-04T01:49:14.449Z,17.00
2022-12-04T01:51:45.764Z,18.70
2022-12-04T01:54:21.637Z,18.00
2022-12-04T01:57:00.442Z,17.52
2022-12-04T01:59:31.790Z,18.30
2022-12-04T02:02:09.410Z,16.85
2022-12-04T02:04:36.846Z,16.90
2022-12-04T02:07:04.056Z,18.30
2022-12-04T02:09:31.934Z,19.05
2022-12-04T02:12:14.064Z,18.55
2022-12-04T02:14:56.659Z,18.00
2022-12-04T02:17:33.567Z,12.88
2022-12-04T02:20:21.448Z,14.18
2022-12-04T02:23:09.111Z,18.25
2022-12-04T02:25:51.403Z,17.80
2022-12-04T02:28:25.632Z,11.95
2022-12-04T02:30:57.582Z,17.00
2022-12-04T02:33:46.751Z,18.10
2022-12-04T02:36:19.074Z,16.13
2022-12-04T02:38:55.228Z,18.60
2022-12-04T02:41:27.460Z,18.67
2022-12-04T02:44:04.604Z,18.50
2022-12-04T02:46:37.337Z,16.92
2022-12-04T02:49:11.512Z,18.80
2022-12-04T02:51:41.173Z,18.08
2022-12-04T02:54:12.637Z,16.58
2022-12-04T02:56:43.905Z,17.77
2022-12-04T02:59:17.751Z,15.45
2022-12-04T03:01:49.563Z,19.00
2022-12-04T03:04:22.430Z,15.00
2022-12-04T03:06:58.346Z,16.00
2022-12-04T03:09:56.269Z,19.33
2022-12-04T03:12:34.295Z,18.85
2022-12-04T03:15:11.164Z,13.93
2022-12-04T03:17:49.995Z,18.00
2022-12-04T03:20:17.455Z,17.67
2022-12-04T03:22:50.171Z,11.00
2022-12-04T03:25:16.624Z,10.38
2022-12-04T03:28:09.658Z,18.05
2022-12-04T03:30:43.044Z,18.40
2022-12-04T03:33:19.109Z,19.17
2022-12-04T03:36:44.214Z,18.58
2022-12-04T03:39:22.873Z,15.82
2022-12-04T03:42:10.274Z,17.13
2022-12-04T03:44:57.993Z,16.50
2022-12-04T03:47:51.613Z,18.63
2022-12-04T03:50:31.166Z,16.25
2022-12-04T03:53:17.243Z,18.25
2022-12-04T03:55:51.575Z,18.45
2022-12-04T03:58:23.574Z,15.68
2022-12-04T04:00:53.078Z,18.35
2022-12-04T04:03:24.070Z,17.08
2022-12-04T04:08:26.654Z,17.13
2022-12-04T04:11:02.840Z,9.23
2022-12-04T04:13:56.625Z,19.00
2022-12-04T04:16:46.496Z,14.68
2022-12-04T04:19:34.724Z,15.02
2022-12-04T04:22:22.993Z,17.38
2022-12-04T04:24:59.316Z,15.85
2022-12-04T04:27:25.606Z,18.33
2022-12-04T04:29:52.889Z,17.25
2022-12-04T04:32:25.175Z,17.55
2022-12-04T04:35:01.021Z,16.88
2022-12-04T04:37:30.224Z,16.83
2022-12-04T04:40:00.239Z,17.13
2022-12-04T04:42:33.711Z,18.08
2022-12-04T04:45:08.196Z,16.42
2022-12-04T04:47:47.597Z,17.23
2022-12-04T04:50:16.594Z,16.55
2022-12-04T04:52:48.916Z,17.23
2022-12-04T04:55:17.823Z,17.80
2022-12-04T04:57:44.314Z,15.38
2022-12-04T05:00:13.934Z,12.23
2022-12-04T05:02:40.426Z,17.63
2022-12-04T05:05:07.662Z,16.40
2022-12-04T05:07:34.068Z,16.63
2022-12-04T05:10:00.478Z,16.95
2022-12-04T05:12:26.886Z,12.98
2022-12-04T05:14:53.224Z,16.17
2022-12-04T05:17:19.531Z,17.88
2022-12-04T05:19:56.282Z,11.75
2022-12-04T05:22:27.879Z,16.73
2022-12-04T05:24:54.795Z,16.48
2022-12-04T05:27:22.317Z,15.25
2022-12-04T05:29:48.819Z,14.35
2022-12-04T05:32:15.320Z,17.30
2022-12-04T05:34:41.676Z,16.40
2022-12-04T05:37:07.984Z,17.27
2022-12-04T05:39:35.434Z,17.63
2022-12-04T05:42:01.733Z,16.20
2022-12-04T05:44:28.082Z,17.27
2022-12-04T05:46:54.476Z,15.13
2022-12-04T05:49:20.811Z,17.13
2022-12-04T05:51:47.126Z,17.20
2022-12-04T05:54:13.431Z,17.33
2022-12-04T05:56:39.719Z,16.80
2022-12-04T05:59:06.015Z,14.40
2022-12-04T06:01:32.458Z,16.73
2022-12-04T06:03:59.236Z,14.45
2022-12-04T06:06:26.300Z,16.48
2022-12-04T06:08:55.429Z,16.85
2022-12-04T06:11:25.616Z,14.25
2022-12-04T06:13:52.584Z,14.67
2022-12-04T06:16:22.272Z,14.90
2022-12-04T06:18:51.556Z,16.60
2022-12-04T06:21:18.760Z,13.20
2022-12-04T06:23:45.469Z,17.23
2022-12-04T06:26:11.943Z,15.18
2022-12-04T06:28:38.701Z,16.45
2022-12-04T06:31:08.563Z,16.02
2022-12-04T06:33:35.977Z,15.40
2022-12-04T06:36:05.315Z,14.95
2022-12-04T06:38:32.647Z,15.82
2022-12-04T06:40:59.320Z,15.10
2022-12-04T06:43:25.728Z,15.82
2022-12-04T06:46:10.928Z,15.00
2022-12-04T06:48:38.141Z,15.85
2022-12-04T06:51:10.194Z,13.95
2022-12-04T06:53:36.842Z,15.18
2022-12-04T06:56:06.761Z,15.73
2022-12-04T06:58:34.187Z,13.80
2022-12-04T07:01:10.120Z,14.48
2022-12-04T07:03:37.769Z,12.80
2022-12-04T07:06:22.091Z,14.48
2022-12-04T07:08:51.798Z,14.98
2022-12-04T07:11:19.781Z,15.20
2022-12-04T07:13:46.086Z,14.75
2022-12-04T07:16:14.034Z,14.00
2022-12-04T07:18:40.806Z,15.25
2022-12-04T07:21:09.602Z,15.55
2022-12-04T07:23:37.102Z,13.57
2022-12-04T07:26:08.201Z,14.00
2022-12-04T07:31:10.720Z,11.25
2022-12-04T07:33:37.916Z,8.85
2022-12-04T07:36:07.318Z,11.25
2022-12-04T07:38:37.302Z,12.77
2022-12-04T07:41:06.245Z,12.82
2022-12-04T07:43:33.345Z,13.95
2022-12-04T07:46:04.905Z,12.38
2022-12-04T07:48:33.442Z,11.48
2022-12-04T07:51:14.163Z,11.32
2022-12-04T07:53:41.033Z,12.70
2022-12-04T07:56:08.802Z,11.98
2022-12-04T07:58:35.260Z,11.80
2022-12-04T08:01:22.490Z,13.23
2022-12-04T08:03:51.891Z,12.20
2022-12-04T08:06:20.264Z,11.65
2022-12-04T08:08:47.445Z,12.55
2022-12-04T08:11:18.077Z,13.40
2022-12-04T08:13:45.115Z,11.43
2022-12-04T08:16:12.802Z,11.88
2022-12-04T08:18:40.174Z,13.27
2022-12-04T08:21:12.113Z,12.63
2022-12-04T08:23:43.440Z,11.73
2022-12-04T08:26:11.859Z,13.35
2022-12-04T08:28:40.557Z,13.18
2022-12-04T08:31:12.803Z,12.48
2022-12-04T08:33:41.082Z,12.70
2022-12-04T08:36:13.397Z,12.48
2022-12-04T08:38:39.974Z,12.93
2022-12-04T08:41:14.330Z,13.07
2022-12-04T08:43:41.304Z,13.05
2022-12-04T08:46:11.368Z,8.60
2022-12-04T08:48:39.369Z,9.93
2022-12-04T08:51:08.084Z,12.57
2022-12-04T08:53:38.795Z,11.85
2022-12-04T08:56:05.347Z,12.50
2022-12-04T08:58:31.859Z,8.73
2022-12-04T09:01:10.907Z,9.70
2022-12-04T09:03:37.644Z,11.70
2022-12-04T09:06:05.702Z,11.57
2022-12-04T09:08:32.849Z,12.18
2022-12-04T09:11:08.305Z,9.02
2022-12-04T09:13:34.875Z,8.95
2022-12-04T09:16:05.302Z,11.18
2022-12-04T09:18:31.880Z,8.77
2022-12-04T09:21:00.583Z,9.70
2022-12-04T09:23:27.683Z,9.20
2022-12-04T09:25:54.503Z,9.80
2022-12-04T09:28:21.007Z,6.40
2022-12-04T09:30:57.558Z,9.02
2022-12-04T09:33:24.103Z,8.98
2022-12-04T09:35:50.508Z,9.82
2022-12-04T09:38:16.821Z,8.07
2022-12-04T09:40:55.931Z,8.65
2022-12-04T09:43:39.126Z,9.25
2022-12-04T09:46:14.882Z,8.02
2022-12-04T09:48:45.370Z,7.85
2022-12-04T09:51:18.792Z,9.30
2022-12-04T09:53:54.659Z,8.80
2022-12-04T09:56:24.776Z,9.35
2022-12-04T09:59:00.039Z,9.00
2022-12-04T10:01:43.137Z,9.00
2022-12-04T10:04:11.573Z,9.00
2022-12-04T10:06:47.574Z,8.93
2022-12-04T10:09:23.745Z,9.13
2022-12-04T10:12:16.057Z,6.68
2022-12-04T10:14:55.638Z,8.98
2022-12-04T10:17:37.293Z,8.40
2022-12-04T10:20:22.481Z,8.43
2022-12-04T10:23:13.744Z,8.20
2022-12-04T10:25:42.031Z,8.77
2022-12-04T10:28:30.300Z,8.68
2022-12-04T10:31:01.047Z,8.55
2022-12-04T10:33:37.048Z,7.90
2022-12-04T10:36:04.308Z,8.07
2022-12-04T10:38:46.153Z,8.32
2022-12-04T10:41:26.953Z,8.68
2022-12-04T10:43:53.382Z,8.30
2022-12-04T10:46:27.437Z,7.55
2022-12-04T10:49:09.470Z,7.05
2022-12-04T10:51:41.098Z,6.22
2022-12-04T10:54:43.224Z,8.02
2022-12-04T10:57:13.766Z,6.07
2022-12-04T10:59:53.008Z,8.70
2022-12-04T11:02:25.696Z,7.47
2022-12-04T11:05:00.229Z,6.28
2022-12-04T11:07:29.196Z,7.32
2022-12-04T11:10:03.262Z,5.80
2022-12-04T11:12:30.565Z,7.07
2022-12-04T11:15:14.657Z,8.43
2022-12-04T11:17:41.125Z,7.22
2022-12-04T11:20:27.970Z,6.03
2022-12-04T11:22:59.410Z,7.78
2022-12-04T11:25:30.517Z,8.32
2022-12-04T11:30:35.058Z,7.38
2022-12-04T11:33:03.298Z,7.28
2022-12-04T11:35:31.473Z,5.93
2022-12-04T11:38:15.603Z,5.50
2022-12-04T11:40:52.190Z,7.60
2022-12-04T11:43:20.403Z,7.55
2022-12-04T11:46:07.518Z,8.57
2022-12-04T11:48:45.200Z,6.85
2022-12-04T11:51:14.551Z,6.57
2022-12-04T11:53:50.475Z,8.15
2022-12-04T11:56:45.437Z,7.82
2022-12-04T11:59:42.773Z,7.50
2022-12-04T12:02:24.411Z,7.10
2022-12-04T12:05:19.986Z,6.35
2022-12-04T12:07:46.325Z,7.70
2022-12-04T12:10:25.628Z,7.68
2022-12-04T12:13:19.308Z,8.98
2022-12-04T12:16:03.948Z,6.97
2022-12-04T12:18:41.895Z,6.93
2022-12-04T12:21:37.557Z,4.38
2022-12-04T12:24:19.546Z,8.27
2022-12-04T12:27:01.727Z,7.68
2022-12-04T12:29:56.085Z,7.90
2022-12-04T12:32:53.766Z,8.30
2022-12-04T12:35:41.428Z,7.40
2022-12-04T12:38:17.989Z,8.02
2022-12-04T12:40:57.230Z,5.32
2022-12-04T12:43:37.459Z,6.80
2022-12-04T12:46:15.553Z,7.53
2022-12-04T12:49:02.243Z,8.13
2022-12-04T12:51:52.951Z,6.72
2022-12-04T12:54:43.955Z,8.02
2022-12-04T12:57:44.992Z,7.90
2022-12-04T13:00:22.764Z,8.98
2022-12-04T13:03:11.612Z,6.03
2022-12-04T13:05:43.231Z,7.28
2022-12-04T13:08:21.050Z,6.85
2022-12-04T13:11:09.288Z,7.15
2022-12-04T13:13:42.608Z,8.18
2022-12-04T13:16:14.262Z,6.40
2022-12-04T13:18:46.388Z,6.50
2022-12-04T13:21:30.868Z,8.32
2022-12-04T13:24:17.692Z,7.55
2022-12-04T13:27:16.442Z,7.57
2022-12-04T13:30:04.969Z,6.20
2022-12-04T13:32:40.121Z,6.78
2022-12-04T13:35:31.190Z,6.93
2022-12-04T13:38:12.408Z,7.60
2022-12-04T13:43:36.499Z,6.28
2022-12-04T13:46:22.773Z,6.93
2022-12-04T13:48:49.344Z,7.22
2022-12-04T13:51:54.320Z,7.15
2022-12-04T13:54:33.563Z,7.50
2022-12-04T13:57:15.206Z,7.57
2022-12-04T13:59:42.308Z,7.80
2022-12-04T14:02:29.785Z,7.60
2022-12-04T14:05:01.466Z,7.75
2022-12-04T14:07:30.572Z,7.30
2022-12-04T14:09:59.846Z,7.82
2022-12-04T14:12:30.111Z,7.32
2022-12-04T14:14:59.331Z,5.87
2022-12-04T14:17:36.983Z,8.63
2022-12-04T14:20:28.577Z,7.82
2022-12-04T14:22:55.189Z,7.88
2022-12-04T14:25:31.960Z,8.02
2022-12-04T14:27:58.310Z,8.52
2022-12-04T14:30:44.127Z,5.05
2022-12-04T14:33:20.239Z,5.03
2022-12-04T14:36:01.226Z,9.13
2022-12-04T14:38:27.809Z,7.10
2022-12-04T14:40:57.927Z,7.93
2022-12-04T14:43:28.229Z,9.65
2022-12-04T14:46:06.773Z,10.23
2022-12-04T14:49:14.685Z,8.70
2022-12-04T14:52:17.444Z,9.35
2022-12-04T14:55:17.457Z,8.65
2022-12-04T14:58:24.721Z,7.22
2022-12-04T15:00:55.438Z,10.15
2022-12-04T15:03:22.589Z,9.18
2022-12-04T15:05:50.774Z,9.48
2022-12-04T15:08:17.164Z,9.88
2022-12-04T15:11:08.789Z,9.48
2022-12-04T15:13:37.464Z,8.90
2022-12-04T15:16:16.195Z,7.05
2022-12-04T15:18:59.676Z,8.73
2022-12-04T15:21:39.594Z,10.15
2022-12-04T15:24:11.105Z,8.80
2022-12-04T15:26:39.124Z,7.90
2022-12-04T15:29:08.182Z,10.65
2022-12-04T15:31:43.390Z,9.50
2022-12-04T15:34:16.962Z,7.10
2022-12-04T15:36:50.690Z,9.30
2022-12-04T15:39:27.261Z,11.25
2022-12-04T15:42:15.099Z,11.02
2022-12-04T15:45:08.656Z,8.18
2022-12-04T15:47:51.516Z,11.80
2022-12-04T15:50:17.783Z,7.55
2022-12-04T15:53:21.272Z,11.32
2022-12-04T15:55:58.634Z,11.70
2022-12-04T15:58:34.040Z,9.20
2022-12-04T16:01:04.567Z,11.07
2022-12-04T16:03:46.653Z,10.45
2022-12-04T16:06:22.046Z,11.32
2022-12-04T16:08:56.800Z,11.43
2022-12-04T16:11:31.216Z,10.48
2022-12-04T16:14:14.154Z,8.82
2022-12-04T16:16:44.938Z,11.43
2022-12-04T16:19:27.364Z,11.15
2022-12-04T16:21:54.017Z,10.30
2022-12-04T16:27:15.888Z,5.40
2022-12-04T16:29:42.171Z,11.20
2022-12-04T16:32:14.246Z,10.23
2022-12-04T16:34:40.542Z,10.85
2022-12-04T16:37:26.986Z,12.75
2022-12-04T16:39:53.310Z,11.25
2022-12-04T16:42:21.153Z,9.52
2022-12-04T16:44:47.817Z,11.27
2022-12-04T16:47:15.064Z,12.68
2022-12-04T16:49:43.128Z,10.73
2022-12-04T16:52:11.310Z,13.05
2022-12-04T16:54:38.142Z,11.13
2022-12-04T16:57:04.530Z,11.27
2022-12-04T16:59:30.842Z,11.55
2022-12-04T17:01:57.953Z,12.63
2022-12-04T17:04:24.450Z,11.35
2022-12-04T17:06:50.871Z,11.57
2022-12-04T17:09:17.519Z,11.50
2022-12-04T17:11:44.031Z,11.82
2022-12-04T17:14:10.524Z,11.40
2022-12-04T17:16:43.051Z,12.52
2022-12-04T17:19:11.258Z,10.30
2022-12-04T17:21:38.306Z,10.95
2022-12-04T17:24:05.104Z,11.30
2022-12-04T17:26:32.073Z,11.82
2022-12-04T17:28:58.446Z,12.02
2022-12-04T17:31:26.131Z,11.57
2022-12-04T17:33:53.510Z,10.70
2022-12-04T17:36:22.162Z,13.13
2022-12-04T17:38:52.037Z,11.13
2022-12-04T17:41:18.349Z,11.38
2022-12-04T17:43:44.722Z,11.70
2022-12-04T17:46:14.030Z,10.65
2022-12-04T17:48:40.684Z,11.90
2022-12-04T17:51:15.597Z,10.95
2022-12-04T17:53:41.961Z,11.48
2022-12-04T17:56:11.290Z,10.88
2022-12-04T17:58:38.410Z,10.65
2022-12-04T18:01:11.086Z,11.85
2022-12-04T18:03:38.858Z,12.25
2022-12-04T18:06:18.908Z,10.57
2022-12-04T18:08:50.046Z,10.77
2022-12-04T18:11:20.288Z,12.13
2022-12-04T18:13:48.070Z,11.35
2022-12-04T18:16:14.585Z,9.15
2022-12-04T18:18:41.166Z,11.52
2022-12-04T18:21:10.980Z,11.48
2022-12-04T18:23:45.424Z,9.55
2022-12-04T18:26:13.937Z,10.57
2022-12-04T18:28:40.313Z,10.35
2022-12-04T18:31:08.341Z,11.43
2022-12-04T18:33:37.446Z,10.75
2022-12-04T18:36:05.176Z,12.55
2022-12-04T18:38:32.005Z,12.82
2022-12-04T18:41:16.633Z,11.68
2022-12-04T18:43:44.616Z,11.82
2022-12-04T18:46:14.605Z,11.95
2022-12-04T18:48:41.557Z,11.52
2022-12-04T18:51:21.122Z,12.55
2022-12-04T18:53:49.008Z,11.57
2022-12-04T18:56:16.576Z,14.20
2022-12-04T18:58:46.519Z,13.73
2022-12-04T19:01:16.445Z,12.60
2022-12-04T19:03:42.848Z,11.90
2022-12-04T19:06:09.468Z,12.35
2022-12-04T19:08:40.007Z,13.05
2022-12-04T19:11:12.294Z,13.98
2022-12-04T19:13:38.792Z,13.18
2022-12-04T19:16:10.251Z,12.07
2022-12-04T19:18:36.608Z,12.57
2022-12-04T19:21:05.949Z,14.82
2022-12-04T19:23:32.320Z,14.48
2022-12-04T19:26:00.381Z,13.88
2022-12-04T19:28:28.122Z,13.75
2022-12-04T19:30:54.923Z,13.95
2022-12-04T19:33:22.115Z,13.55
2022-12-04T19:36:06.912Z,11.80
2022-12-04T19:38:33.739Z,15.15
2022-12-04T19:41:12.772Z,15.05
2022-12-04T19:43:41.796Z,15.05
2022-12-04T19:46:09.824Z,14.98
2022-12-04T19:48:37.829Z,12.82
2022-12-04T19:51:15.821Z,15.10
2022-12-04T19:53:43.480Z,12.93
2022-12-04T19:56:16.061Z,14.50
2022-12-04T19:58:43.293Z,14.02
2022-12-04T20:01:12.954Z,15.60
2022-12-04T20:03:39.352Z,15.18
2022-12-04T20:06:09.384Z,14.82
2022-12-04T20:08:36.227Z,15.68
2022-12-04T20:11:19.333Z,16.90
2022-12-04T20:13:47.110Z,14.65
2022-12-04T20:16:17.862Z,13.70
2022-12-04T20:18:44.621Z,14.85
2022-12-04T20:21:12.580Z,14.48
2022-12-04T20:23:44.247Z,13.85
2022-12-04T20:26:13.125Z,15.05
2022-12-04T20:28:40.225Z,13.85
2022-12-04T20:31:18.735Z,13.50
2022-12-04T20:33:47.626Z,15.40
2022-12-04T20:36:15.591Z,14.20
2022-12-04T20:38:42.326Z,13.90
2022-12-04T20:41:10.731Z,14.07
2022-12-04T20:43:37.183Z,12.85
2022-12-04T20:46:20.215Z,13.75
2022-12-04T20:48:50.613Z,14.30
2022-12-04T20:51:19.570Z,14.68
2022-12-04T20:53:46.577Z,14.27
2022-12-04T20:56:13.581Z,13.93
2022-12-04T20:58:40.564Z,14.95
2022-12-04T21:01:13.418Z,13.05
2022-12-04T21:03:40.863Z,14.68
2022-12-04T21:06:16.430Z,13.95
2022-12-04T21:09:00.238Z,13.50
2022-12-04T21:11:31.470Z,13.10
2022-12-04T21:14:17.678Z,13.35
2022-12-04T21:16:45.474Z,14.57
2022-12-04T21:19:14.742Z,13.52
2022-12-04T21:21:41.235Z,14.30
2022-12-04T21:24:09.989Z,12.98
2022-12-04T21:26:36.468Z,15.35
2022-12-04T21:29:04.228Z,14.27
2022-12-04T21:31:31.174Z,15.60
2022-12-04T21:33:59.123Z,14.50
2022-12-04T21:36:27.148Z,13.27
2022-12-04T21:38:54.077Z,12.57
2022-12-04T21:41:39.737Z,14.93
2022-12-04T21:44:07.619Z,15.93
2022-12-04T21:46:34.360Z,14.50
2022-12-04T21:49:00.747Z,12.93
2022-12-04T21:51:55.719Z,12.43
2022-12-04T21:54:14.128Z,13.07
2022-12-04T21:56:40.416Z,15.32
2022-12-04T21:59:07.217Z,12.93
2022-12-04T22:01:33.719Z,13.57
2022-12-04T22:04:00.074Z,14.60
2022-12-04T22:06:27.157Z,14.20
2022-12-04T22:08:54.433Z,14.57
2022-12-04T22:11:21.149Z,13.50
2022-12-04T22:13:47.450Z,14.13
2022-12-04T22:16:15.716Z,14.63
2022-12-04T22:18:42.346Z,14.32
2022-12-04T22:21:11.894Z,13.10
2022-12-04T22:23:38.266Z,13.80
2022-12-04T22:26:15.799Z,14.35
2022-12-04T22:28:42.941Z,14.50
2022-12-04T22:31:15.769Z,14.07
2022-12-04T22:33:42.531Z,13.25
2022-12-04T22:36:11.487Z,14.80
2022-12-04T22:38:52.725Z,13.57
2022-12-04T22:41:26.383Z,14.13
2022-12-04T22:43:52.988Z,14.10
2022-12-04T22:46:19.502Z,14.02
2022-12-04T22:48:46.519Z,12.57
2022-12-04T22:51:16.404Z,13.88
2022-12-04T22:53:45.425Z,14.52
2022-12-04T22:56:21.245Z,13.65
2022-12-04T22:58:47.626Z,11.88
2022-12-04T23:01:19.455Z,11.88
2022-12-04T23:03:46.890Z,12.93
2022-12-04T23:06:14.562Z,12.40
2022-12-04T23:08:42.182Z,12.27
2022-12-04T23:11:14.715Z,14.45
2022-12-04T23:13:41.512Z,13.20
2022-12-04T23:16:09.881Z,13.25
2022-12-04T23:18:37.568Z,13.93
2022-12-04T23:21:10.239Z,13.88
2022-12-04T23:23:39.195Z,12.27
2022-12-04T23:26:14.494Z,13.73
2022-12-04T23:28:41.031Z,13.68
2022-12-04T23:31:08.206Z,13.07
2022-12-04T23:33:34.617Z,12.57
2022-12-04T23:36:02.571Z,14.20
2022-12-04T23:38:29.760Z,13.15
2022-12-04T23:41:08.580Z,13.30
2022-12-04T23:43:35.315Z,13.70
2022-12-04T23:46:05.881Z,14.00
2022-12-04T23:48:37.481Z,14.13
2022-12-04T23:51:03.887Z,13.68
2022-12-04T23:53:30.195Z,14.82
2022-12-04T23:56:02.822Z,16.10
2022-12-04T23:58:29.106Z,14.75
